Time;durP1;ratioP1;P1;durP2;ratioP2;P2;SDS_P1;SDS_P2;PMS_P1;PMS_P2;Temp;Humidity;BMP_temperature;BMP_pressure;BME280_temperature;BME280_humidity;BME280_pressure;Samples;Min_cycle;Max_cycle;Signal;HPM_P1;HPM_P2
2021/10/24 00:01:15;;;;;;;10.48;3.70;;;205.50;2073.60;;;;;;5001314;28;20061;-86
2021/10/24 00:06:29;;;;;;;6.10;2.75;;;205.50;2048.00;;;;;;5105921;22;20414;-79
2021/10/24 00:08:55;;;;;;;4.93;2.60;;;205.50;2073.60;;;;;;5014412;28;20026;-81
2021/10/24 00:12:01;;;;;;;5.82;3.15;;;205.50;2073.60;;;;;;4998105;28;20041;-79
2021/10/24 00:15:09;;;;;;;6.32;2.35;;;205.40;2099.20;;;;;;4990170;28;20424;-78
2021/10/24 00:24:58;;;;;;;7.00;3.03;;;205.40;2073.60;;;;;;4973098;29;20101;-80
2021/10/24 00:38:43;;;;;;;8.20;2.95;;;205.30;2048.00;;;;;;4933610;29;20080;-80
2021/10/24 00:49:13;;;;;;;4.25;2.40;;;205.30;2073.60;;;;;;4893706;29;20077;-79
2021/10/24 01:32:44;;;;;;;11.27;2.70;;;205.10;2073.60;;;;;;4851224;29;20052;-79
2021/10/24 01:35:54;;;;;;;9.57;2.65;;;205.10;2073.60;;;;;;5045629;23;20134;-78
2021/10/24 01:48:32;;;;;;;7.07;3.05;;;204.90;2099.20;;;;;;5063313;22;20064;-79
2021/10/24 01:52:11;;;;;;;7.95;2.72;;;204.90;2099.20;;;;;;4991585;28;20047;-79
2021/10/24 01:59:20;;;;;;;6.28;2.80;;;180.10;2124.80;;;;;;4900226;29;20085;-79
2021/10/24 02:02:57;;;;;;;9.63;2.88;;;180.00;2124.80;;;;;;4882021;29;20021;-78
2021/10/24 02:08:33;;;;;;;7.57;2.90;;;179.90;2150.40;;;;;;5143928;22;20054;-79
2021/10/24 02:11:41;;;;;;;6.75;2.75;;;179.90;2176.00;;;;;;4976037;28;20066;-78
2021/10/24 02:15:33;;;;;;;5.75;2.58;;;179.90;2176.00;;;;;;4960076;29;20019;-80
2021/10/24 02:19:12;;;;;;;6.43;2.95;;;179.80;2150.40;;;;;;4864405;29;20066;-79
2021/10/24 02:22:33;;;;;;;10.75;2.80;;;179.70;2201.60;;;;;;4810636;29;20043;-79
2021/10/24 02:25:45;;;;;;;6.72;2.50;;;179.70;2201.60;;;;;;4774264;30;20516;-78
2021/10/24 02:29:00;;;;;;;5.85;2.60;;;179.60;2176.00;;;;;;4755016;30;20040;-79
2021/10/24 02:32:01;;;;;;;4.20;2.20;;;179.60;2176.00;;;;;;4756929;30;20024;-79
2021/10/24 02:50:17;;;;;;;6.20;3.30;;;179.60;2176.00;;;;;;4621986;31;20446;-78
2021/10/24 02:54:10;;;;;;;7.13;3.25;;;179.60;2201.60;;;;;;4563636;31;20052;-78
2021/10/24 02:57:17;;;;;;;6.15;3.40;;;179.50;2201.60;;;;;;4590667;30;20089;-79
2021/10/24 02:59:55;;;;;;;4.80;2.65;;;179.60;2201.60;;;;;;4643054;31;20058;-78
2021/10/24 03:03:06;;;;;;;6.65;2.70;;;179.60;2201.60;;;;;;4831877;23;20053;-79
2021/10/24 03:13:06;;;;;;;5.95;2.28;;;179.60;2176.00;;;;;;5181726;23;20103;-79
2021/10/24 03:16:41;;;;;;;5.80;2.60;;;179.60;2176.00;;;;;;4881402;29;20053;-78
2021/10/24 03:20:08;;;;;;;5.15;2.10;;;179.50;2201.60;;;;;;4809769;29;20063;-78
2021/10/24 03:23:42;;;;;;;6.63;2.85;;;179.60;2176.00;;;;;;4829267;29;20051;-79
2021/10/24 03:26:20;;;;;;;9.88;2.80;;;179.50;2176.00;;;;;;4757244;30;20039;-77
2021/10/24 03:29:40;;;;;;;6.57;3.28;;;179.40;2201.60;;;;;;4756906;30;20029;-78
2021/10/24 03:32:13;;;;;;;7.97;3.25;;;179.40;2201.60;;;;;;4668414;30;20047;-78
2021/10/24 03:38:12;;;;;;;6.13;2.72;;;179.40;2201.60;;;;;;5077849;23;20059;-77
2021/10/24 03:41:52;;;;;;;37.72;19.08;;;179.40;2201.60;;;;;;4863328;29;20038;-77
2021/10/24 03:45:40;;;;;;;20.20;9.88;;;179.40;2227.20;;;;;;4774224;30;20028;-78
2021/10/24 03:48:58;;;;;;;39.00;19.17;;;179.30;2201.60;;;;;;4738893;30;20023;-78
2021/10/24 03:52:41;;;;;;;49.33;23.02;;;179.30;2227.20;;;;;;4688139;30;20049;-78
2021/10/24 03:56:08;;;;;;;49.28;23.10;;;179.20;2227.20;;;;;;4666229;30;20034;-77
2021/10/24 03:59:56;;;;;;;314.67;124.50;;;179.30;2227.20;;;;;;4632694;30;20071;-77
2021/10/24 04:08:50;;;;;;;15.80;7.68;;;179.20;2227.20;;;;;;4648901;26;20070;-78
2021/10/24 04:12:04;;;;;;;9.23;4.22;;;154.50;2227.20;;;;;;4980632;28;20027;-78
2021/10/24 04:14:57;;;;;;;10.35;5.50;;;154.50;2227.20;;;;;;4827574;29;20513;-77
2021/10/24 04:21:01;;;;;;;9.27;3.90;;;154.30;2252.80;;;;;;5045340;23;20067;-78
2021/10/24 04:24:14;;;;;;;11.20;5.90;;;154.30;2252.80;;;;;;4880905;29;20073;-77
2021/10/24 04:27:45;;;;;;;18.75;9.07;;;154.30;2252.80;;;;;;4844126;29;20041;-78
2021/10/24 04:31:15;;;;;;;13.23;5.95;;;154.20;2252.80;;;;;;4844575;29;20046;-78
2021/10/24 04:34:23;;;;;;;8.73;3.92;;;154.20;2252.80;;;;;;4862835;29;20026;-78
2021/10/24 04:37:15;;;;;;;7.18;3.80;;;154.10;2252.80;;;;;;4846672;29;20042;-78
2021/10/24 04:40:03;;;;;;;16.45;5.20;;;154.10;2252.80;;;;;;4806549;29;20024;-77
2021/10/24 04:42:51;;;;;;;9.88;4.93;;;154.10;2252.80;;;;;;4821346;29;20043;-78
2021/10/24 04:51:09;;;;;;;36.47;20.25;;;154.10;2252.80;;;;;;5112710;23;20079;-80
2021/10/24 05:04:26;;;;;;;150.65;45.15;;;154.00;2252.80;;;;;;4732962;27;20110;-80
2021/10/24 05:07:03;;;;;;;115.25;33.50;;;153.90;2252.80;;;;;;4905123;29;20037;-78
2021/10/24 05:09:40;;;;;;;112.65;34.42;;;153.90;2252.80;;;;;;4902542;29;20040;-80
2021/10/24 05:14:44;;;;;;;177.48;52.65;;;153.80;2252.80;;;;;;4265586;27;20051;-78
2021/10/24 05:20:21;;;;;;;32.13;12.30;;;153.70;2252.80;;;;;;4975827;28;20058;-78
2021/10/24 05:23:26;;;;;;;18.52;8.30;;;153.60;2252.80;;;;;;4913264;29;20106;-78
2021/10/24 05:25:54;;;;;;;12.50;6.22;;;153.60;2252.80;;;;;;4882004;29;20057;-78
2021/10/24 05:28:44;;;;;;;17.83;7.10;;;153.60;2252.80;;;;;;4882828;29;20093;-79
2021/10/24 05:31:21;;;;;;;11.88;6.28;;;128.90;2252.80;;;;;;4882697;29;20044;-78
2021/10/24 05:36:26;;;;;;;30.63;12.73;;;128.90;2252.80;;;;;;4945037;23;20111;-80
2021/10/24 05:38:52;;;;;;;52.47;23.65;;;128.90;2252.80;;;;;;4948578;29;20047;-78
2021/10/24 05:41:19;;;;;;;167.85;71.97;;;153.60;2252.80;;;;;;4929081;29;20044;-79
2021/10/24 05:43:50;;;;;;;137.43;63.53;;;153.60;2252.80;;;;;;4932759;29;20016;-78
2021/10/24 05:46:16;;;;;;;64.50;32.53;;;153.60;2252.80;;;;;;4928333;29;20012;-78
2021/10/24 05:48:42;;;;;;;55.58;32.90;;;128.80;2252.80;;;;;;4924942;29;20032;-76
2021/10/24 05:51:09;;;;;;;35.72;18.55;;;128.80;2252.80;;;;;;4923998;29;20056;-79
2021/10/24 05:53:36;;;;;;;49.30;25.40;;;128.80;2252.80;;;;;;4925277;29;20474;-77
2021/10/24 05:56:03;;;;;;;113.15;51.42;;;128.90;2252.80;;;;;;4941049;29;20397;-75
2021/10/24 05:58:29;;;;;;;134.25;61.95;;;153.60;2252.80;;;;;;4918442;29;20065;-78
2021/10/24 06:00:55;;;;;;;128.98;64.00;;;153.60;2252.80;;;;;;4926452;29;20040;-78
2021/10/24 06:03:21;;;;;;;97.03;47.67;;;153.60;2252.80;;;;;;4926563;29;20032;-75
2021/10/24 06:05:47;;;;;;;39.97;22.52;;;153.60;2252.80;;;;;;4919564;29;20024;-76
2021/10/24 06:08:21;;;;;;;41.30;22.50;;;153.60;2252.80;;;;;;4917506;29;20512;-75
2021/10/24 06:10:54;;;;;;;26.70;16.17;;;153.60;2252.80;;;;;;4933579;29;20025;-84
2021/10/24 06:13:31;;;;;;;14.93;8.52;;;153.60;2252.80;;;;;;4936486;29;20047;-83
2021/10/24 06:16:10;;;;;;;14.63;6.95;;;153.60;2252.80;;;;;;4953299;29;20012;-85
2021/10/24 06:18:58;;;;;;;11.95;6.78;;;153.70;2252.80;;;;;;4937079;29;20051;-84
2021/10/24 07:52:21;;;;;;;17.80;6.20;;;230.80;2048.00;;;;;;4802493;29;20039;-79
2021/10/24 07:58:15;;;;;;;17.83;8.07;;;231.30;1996.80;;;;;;4787924;30;20050;-79
2021/10/24 08:00:41;;;;;;;16.55;6.10;;;256.10;1971.20;;;;;;4790196;30;20044;-78
2021/10/24 08:03:08;;;;;;;16.58;7.80;;;256.50;1920.00;;;;;;4790459;30;20092;-78
2021/10/24 08:05:34;;;;;;;17.98;9.43;;;256.90;1868.80;;;;;;4774220;30;20397;-81
2021/10/24 08:08:01;;;;;;;12.68;6.95;;;281.80;1868.80;;;;;;4790070;30;20038;-80
2021/10/24 08:10:27;;;;;;;13.18;6.03;;;282.30;1817.60;;;;;;4789183;30;20081;-88
2021/10/24 08:12:54;;;;;;;12.95;7.18;;;307.40;1817.60;;;;;;4774202;30;20122;-82
2021/10/24 08:15:21;;;;;;;12.23;6.32;;;307.70;1792.00;;;;;;4792024;29;20038;-88
2021/10/24 08:17:50;;;;;;;15.82;7.93;;;332.80;1715.20;;;;;;4791736;29;20039;-82
2021/10/24 08:20:16;;;;;;;14.40;8.07;;;358.90;1587.20;;;;;;4791748;29;20030;-80
2021/10/24 08:22:43;;;;;;;15.00;6.97;;;461.20;1331.20;;;;;;4807988;29;20027;-79
2021/10/24 08:25:10;;;;;;;13.48;5.60;;;538.10;1075.20;;;;;;4807825;29;20083;-78
2021/10/24 08:27:36;;;;;;;15.55;5.82;;;589.40;947.20;;;;;;4791421;29;20126;-79
2021/10/24 08:30:05;;;;;;;9.23;5.53;;;640.00;819.20;;;;;;4791352;29;20484;-80
2021/10/24 08:32:33;;;;;;;12.68;6.82;;;640.30;793.60;;;;;;4791099;29;20030;-80
2021/10/24 08:34:59;;;;;;;15.80;9.55;;;666.20;768.00;;;;;;4791442;29;20034;-80
2021/10/24 08:37:26;;;;;;;16.45;8.90;;;;;;;;;;4791168;29;20091;-80
2021/10/24 08:39:52;;;;;;;10.45;5.22;;;;;;;;;;4807436;29;20090;-79
2021/10/24 08:42:27;;;;;;;12.20;5.55;;;717.60;716.80;;;;;;4791267;29;20054;-83
2021/10/24 08:45:01;;;;;;;11.65;7.97;;;717.60;691.20;;;;;;4791010;29;20034;-85
2021/10/24 08:47:28;;;;;;;13.38;7.30;;;742.60;742.40;;;;;;4791176;29;20051;-85
2021/10/24 08:49:54;;;;;;;38.88;21.15;;;743.10;691.20;;;;;;4791144;29;20412;-86
2021/10/24 08:52:21;;;;;;;49.78;28.05;;;768.40;665.60;;;;;;4806927;29;20532;-83
2021/10/24 08:54:50;;;;;;;20.98;11.05;;;768.00;665.60;;;;;;4807210;29;20027;-78
2021/10/24 08:57:26;;;;;;;12.05;6.18;;;;;;;;;;4790946;29;20030;-77
2021/10/24 08:59:54;;;;;;;13.93;6.03;;;794.10;665.60;;;;;;4790563;29;20488;-78
2021/10/24 09:02:21;;;;;;;12.75;5.03;;;794.30;665.60;;;;;;4790482;29;20441;-82
2021/10/24 09:04:54;;;;;;;97.43;58.00;;;819.30;588.80;;;;;;4790358;29;20031;-82
2021/10/24 09:07:21;;;;;;;23.80;13.15;;;819.20;614.40;;;;;;4791772;29;20048;-86
2021/10/24 09:09:47;;;;;;;7.93;4.72;;;819.40;614.40;;;;;;4808052;29;20046;-86
2021/10/24 09:12:15;;;;;;;9.30;6.70;;;819.70;588.80;;;;;;4791873;29;20389;-86
2021/10/24 09:14:53;;;;;;;20.10;14.98;;;819.60;614.40;;;;;;4807323;29;20033;-86
2021/10/24 09:17:21;;;;;;;10.93;5.70;;;819.70;588.80;;;;;;4791788;29;20038;-85
2021/10/24 09:19:53;;;;;;;10.40;4.75;;;845.30;563.20;;;;;;4791690;29;20066;-85
2021/10/24 09:22:29;;;;;;;15.80;5.43;;;870.50;588.80;;;;;;4793270;29;20039;-85
2021/10/24 09:25:15;;;;;;;8.98;3.80;;;870.70;537.60;;;;;;4791649;29;20070;-84
2021/10/24 09:27:56;;;;;;;10.93;4.82;;;845.30;563.20;;;;;;4791272;29;20034;-86
2021/10/24 09:30:35;;;;;;;9.50;6.03;;;845.50;563.20;;;;;;4791064;29;20125;-91
2021/10/24 09:33:03;;;;;;;25.52;13.95;;;;;;;;;;4791025;29;20083;-90
2021/10/24 09:35:35;;;;;;;17.15;9.27;;;870.40;537.60;;;;;;4807038;29;20498;-90
2021/10/24 09:38:03;;;;;;;22.73;8.05;;;870.60;537.60;;;;;;4790729;29;20042;-89
2021/10/24 09:40:33;;;;;;;21.77;11.93;;;793.70;614.40;;;;;;4791486;29;20088;-91
2021/10/24 09:43:28;;;;;;;15.13;7.53;;;691.90;716.80;;;;;;4791569;29;20142;-91
2021/10/24 09:45:57;;;;;;;7.78;5.63;;;665.70;768.00;;;;;;4790922;29;20027;-88
2021/10/24 09:48:24;;;;;;;13.15;7.15;;;;;;;;;;4790866;29;20054;-89
2021/10/24 09:50:57;;;;;;;9.07;4.53;;;614.70;716.80;;;;;;4790875;29;20031;-91
2021/10/24 09:53:23;;;;;;;11.27;5.07;;;589.00;844.80;;;;;;4790879;29;20035;-92
2021/10/24 09:55:55;;;;;;;9.73;6.30;;;538.00;921.60;;;;;;4791011;29;20034;-87
2021/10/24 09:58:26;;;;;;;12.68;7.68;;;538.00;921.60;;;;;;4790839;29;20607;-94
2021/10/24 10:00:52;;;;;;;11.20;4.57;;;512.80;921.60;;;;;;4790836;29;20484;-94
2021/10/24 10:03:19;;;;;;;8.85;4.05;;;487.30;972.80;;;;;;4790947;29;20038;-94
2021/10/24 10:05:46;;;;;;;28.52;17.48;;;486.80;1024.00;;;;;;4792109;29;20027;-96
2021/10/24 10:08:15;;;;;;;22.80;13.23;;;486.40;1049.60;;;;;;4790868;29;20027;-93
2021/10/24 10:11:12;;;;;;;8.55;4.13;;;461.50;1075.20;;;;;;4790975;29;20070;-90
2021/10/24 10:13:42;;;;;;;116.07;37.15;;;461.20;1075.20;;;;;;4754485;30;20036;-93
2021/10/24 10:16:11;;;;;;;30.20;10.82;;;461.50;1100.80;;;;;;4768821;30;20044;-92
2021/10/24 10:18:55;;;;;;;43.97;14.75;;;461.60;1100.80;;;;;;4770883;30;20139;-89
2021/10/24 10:21:32;;;;;;;;;;;461.30;1075.20;;;;;;4773124;30;20121;-90
2021/10/24 10:23:59;;;;;;;94.50;30.77;;;436.00;1126.40;;;;;;4772485;30;20008;-89
2021/10/24 10:26:41;;;;;;;14.18;5.45;;;435.50;1177.60;;;;;;4772604;30;20043;-90
2021/10/24 10:29:10;;;;;;;74.07;21.10;;;435.20;1152.00;;;;;;4780705;30;20108;-90
2021/10/24 10:31:36;;;;;;;37.13;11.23;;;410.10;1177.60;;;;;;4778939;30;20498;-86
2021/10/24 10:34:10;;;;;;;19.60;7.95;;;409.60;1254.40;;;;;;4786960;30;20031;-89
2021/10/24 10:36:45;;;;;;;27.45;11.07;;;384.90;1228.80;;;;;;4785897;30;20036;-87
2021/10/24 10:39:32;;;;;;;31.20;12.75;;;384.40;1280.00;;;;;;4775153;30;20099;-87
2021/10/24 10:42:06;;;;;;;17.95;8.70;;;384.30;1305.60;;;;;;4771966;30;20225;-86
2021/10/24 10:44:36;;;;;;;12.32;5.40;;;384.20;1280.00;;;;;;4770471;30;20505;-88
2021/10/24 10:47:40;;;;;;;12.20;5.00;;;384.20;1305.60;;;;;;4789660;29;20031;-89
2021/10/24 10:50:31;;;;;;;98.43;59.22;;;384.20;1254.40;;;;;;4768729;29;20113;-94
2021/10/24 10:53:06;;;;;;;348.15;218.93;;;384.00;1305.60;;;;;;4823350;29;20045;-94
2021/10/24 10:55:56;;;;;;;61.17;32.17;;;359.30;1305.60;;;;;;4819585;29;20018;-95
2021/10/24 10:58:35;;;;;;;443.63;259.98;;;384.00;1331.20;;;;;;4819042;29;20053;-91
2021/10/24 11:01:03;;;;;;;147.00;75.90;;;359.30;1305.60;;;;;;4823048;29;20038;-90
2021/10/24 11:03:49;;;;;;;186.27;96.95;;;384.00;1305.60;;;;;;4811536;29;20027;-87
2021/10/24 11:06:27;;;;;;;40.33;26.35;;;359.10;1331.20;;;;;;4801942;29;20045;-88
2021/10/24 11:08:54;;;;;;;10.80;5.20;;;359.10;1305.60;;;;;;4826523;29;20050;-88
2021/10/24 11:11:41;;;;;;;13.93;6.78;;;359.10;1305.60;;;;;;4826205;29;20061;-88
2021/10/24 11:14:16;;;;;;;14.30;6.10;;;359.10;1331.20;;;;;;4826322;29;20030;-88
2021/10/24 11:16:42;;;;;;;7.38;4.60;;;359.00;1356.80;;;;;;4826364;29;20079;-88
2021/10/24 11:19:29;;;;;;;12.07;4.30;;;359.00;1356.80;;;;;;4824719;29;20042;-89
2021/10/24 11:22:01;;;;;;;10.50;4.60;;;358.90;1331.20;;;;;;4804726;29;20091;-94
2021/10/24 11:24:33;;;;;;;14.93;4.93;;;359.00;1382.40;;;;;;4801759;29;20056;-93
2021/10/24 11:27:04;;;;;;;7.72;4.13;;;358.90;1356.80;;;;;;4808536;29;20388;-91
2021/10/24 11:29:32;;;;;;;11.48;7.70;;;359.00;1382.40;;;;;;4824592;29;20031;-89
2021/10/24 11:32:25;;;;;;;11.70;6.10;;;358.90;1331.20;;;;;;4825841;29;20034;-92
2021/10/24 11:34:54;;;;;;;15.03;8.50;;;358.90;1356.80;;;;;;4825402;29;20115;-89
2021/10/24 11:37:45;;;;;;;18.92;10.70;;;359.00;1356.80;;;;;;4801043;29;20082;-89
2021/10/24 11:40:17;;;;;;;23.88;14.82;;;359.10;1356.80;;;;;;4799900;29;20035;-90
2021/10/24 11:43:08;;;;;;;16.38;9.55;;;359.10;1331.20;;;;;;4804714;29;20055;-89
2021/10/24 11:45:37;;;;;;;7.95;3.35;;;359.10;1356.80;;;;;;4797323;29;20029;-89
2021/10/24 11:48:05;;;;;;;11.18;3.90;;;359.10;1254.40;;;;;;4825556;29;20126;-91
2021/10/24 11:50:51;;;;;;;40.38;27.55;;;359.00;1280.00;;;;;;4822701;29;20030;-94
2021/10/24 11:53:30;;;;;;;41.95;30.40;;;359.00;1305.60;;;;;;4820202;29;20030;-95
2021/10/24 11:56:00;;;;;;;150.50;113.82;;;359.00;1254.40;;;;;;4826119;29;20129;-94
2021/10/24 12:01:24;;;;;;;19.50;17.50;;;409.80;1254.40;;;;;;4826077;29;20023;-92
2021/10/24 12:04:07;;;;;;;10.52;7.57;;;435.40;1100.80;;;;;;4800278;29;20083;-90
2021/10/24 12:07:00;;;;;;;5.88;4.05;;;410.20;1152.00;;;;;;4825729;29;20041;-91
2021/10/24 12:09:39;;;;;;;13.00;8.25;;;410.10;1126.40;;;;;;4825898;29;20117;-95
2021/10/24 12:12:33;;;;;;;105.90;80.85;;;384.90;1100.80;;;;;;4825891;29;20400;-88
2021/10/24 12:15:05;;;;;;;171.00;125.63;;;384.60;1126.40;;;;;;4824353;29;20030;-89
2021/10/24 12:17:32;;;;;;;39.13;26.45;;;384.30;1177.60;;;;;;4810102;29;20133;-89
2021/10/24 12:20:19;;;;;;;7.28;3.92;;;384.30;1177.60;;;;;;4813459;29;20038;-89
2021/10/24 12:22:56;;;;;;;11.68;7.25;;;384.10;1177.60;;;;;;4799190;29;20123;-88
2021/10/24 12:25:57;;;;;;;18.95;10.60;;;384.10;1152.00;;;;;;4826135;29;20078;-86
2021/10/24 12:28:40;;;;;;;17.10;13.32;;;384.10;1203.20;;;;;;4801735;29;20143;-88
2021/10/24 12:31:21;;;;;;;33.35;17.95;;;384.00;1203.20;;;;;;4806533;29;20123;-93
2021/10/24 12:33:47;;;;;;;45.17;18.80;;;384.00;1203.20;;;;;;4806119;29;20031;-88
2021/10/24 12:36:35;;;;;;;36.60;16.02;;;384.00;1177.60;;;;;;4804872;29;20057;-88
2021/10/24 12:39:22;;;;;;;54.15;19.00;;;359.30;1177.60;;;;;;4804279;29;20546;-91
2021/10/24 12:41:49;;;;;;;31.70;17.90;;;384.00;1177.60;;;;;;4805560;29;20066;-88
2021/10/24 12:44:22;;;;;;;43.58;22.67;;;384.50;1177.60;;;;;;4806152;29;20042;-86
2021/10/24 12:46:47;;;;;;;36.75;13.25;;;384.70;1152.00;;;;;;4790900;29;20039;-86
2021/10/24 12:49:18;;;;;;;44.28;21.02;;;384.70;1075.20;;;;;;4805927;29;20158;-87
2021/10/24 12:52:08;;;;;;;39.00;14.10;;;384.90;1075.20;;;;;;4806367;29;20060;-88
2021/10/24 12:54:34;;;;;;;41.05;13.73;;;384.70;1075.20;;;;;;4806068;29;20129;-88
2021/10/24 12:57:01;;;;;;;50.15;30.67;;;384.70;1126.40;;;;;;4806450;29;20043;-94
2021/10/24 12:59:27;;;;;;;31.52;18.67;;;384.70;1100.80;;;;;;4806071;29;20042;-88
2021/10/24 13:01:54;;;;;;;17.55;9.68;;;384.60;1152.00;;;;;;4805876;29;20059;-88
2021/10/24 13:04:20;;;;;;;22.90;13.30;;;384.70;1126.40;;;;;;4818961;29;20043;-88
2021/10/24 13:06:47;;;;;;;125.13;37.58;;;410.40;1100.80;;;;;;4809932;29;20061;-87
2021/10/24 13:09:13;;;;;;;93.38;26.75;;;460.80;1075.20;;;;;;4825910;29;20019;-88
2021/10/24 13:11:39;;;;;;;66.95;23.70;;;461.60;972.80;;;;;;4809730;29;20066;-94
2021/10/24 13:14:06;;;;;;;27.17;12.25;;;486.60;896.00;;;;;;4809630;29;20121;-88
2021/10/24 13:16:32;;;;;;;10.88;7.10;;;486.80;896.00;;;;;;4809694;29;20031;-87
2021/10/24 13:18:59;;;;;;;25.80;16.80;;;486.80;896.00;;;;;;4809769;29;20552;-88
2021/10/24 13:24:10;;;;;;;25.38;11.65;;;486.80;844.80;;;;;;4826162;29;20410;-87
2021/10/24 13:26:41;;;;;;;24.58;15.50;;;486.90;896.00;;;;;;4809325;29;20034;-93
2021/10/24 13:29:08;;;;;;;11.23;6.32;;;487.10;921.60;;;;;;4807912;29;20126;-86
2021/10/24 13:31:35;;;;;;;9.63;5.55;;;487.30;870.40;;;;;;4791343;29;20068;-89
2021/10/24 13:34:02;;;;;;;8.45;4.40;;;487.10;870.40;;;;;;4791233;29;20417;-90
2021/10/24 13:36:28;;;;;;;7.03;2.72;;;487.10;896.00;;;;;;4791034;29;20031;-93
2021/10/24 13:38:54;;;;;;;10.10;5.50;;;487.20;844.80;;;;;;4791248;29;20150;-91
2021/10/24 13:41:20;;;;;;;15.13;9.35;;;487.30;870.40;;;;;;4791299;29;20031;-90
2021/10/24 13:43:47;;;;;;;15.65;8.52;;;487.30;870.40;;;;;;4791383;29;20057;-93
2021/10/24 13:46:14;;;;;;;11.20;5.65;;;487.30;870.40;;;;;;4791341;29;20054;-93
2021/10/24 13:48:41;;;;;;;12.35;3.88;;;487.30;870.40;;;;;;4790810;29;20058;-84
2021/10/24 13:51:07;;;;;;;13.02;4.35;;;487.30;870.40;;;;;;4790964;29;20499;-86
2021/10/24 13:53:33;;;;;;;6.40;3.35;;;487.00;870.40;;;;;;4790521;29;20042;-92
2021/10/24 13:55:59;;;;;;;14.25;8.75;;;486.70;870.40;;;;;;4791135;29;20130;-88
2021/10/24 13:58:26;;;;;;;13.65;8.30;;;486.50;896.00;;;;;;4790932;29;20134;-87
2021/10/24 14:00:53;;;;;;;12.45;7.68;;;461.60;921.60;;;;;;4806866;29;20031;-88
2021/10/24 14:03:19;;;;;;;14.73;5.93;;;461.20;947.20;;;;;;4790825;29;20038;-91
2021/10/24 14:05:46;;;;;;;12.50;9.90;;;435.90;998.40;;;;;;4791253;29;20031;-91
2021/10/24 14:08:12;;;;;;;9.65;6.30;;;435.30;1024.00;;;;;;4790822;29;20135;-89
2021/10/24 14:10:39;;;;;;;13.05;7.68;;;410.20;1075.20;;;;;;4790971;29;20031;-90
2021/10/24 14:13:05;;;;;;;11.23;7.45;;;409.90;1075.20;;;;;;4790896;29;20529;-90
2021/10/24 14:15:31;;;;;;;13.55;7.32;;;409.70;1126.40;;;;;;4790732;29;20068;-90
2021/10/24 14:17:59;;;;;;;10.23;6.88;;;384.80;1100.80;;;;;;4790885;29;20034;-92
2021/10/24 14:20:27;;;;;;;16.40;9.90;;;384.70;1075.20;;;;;;4790988;29;20134;-91
2021/10/24 14:22:53;;;;;;;13.27;6.75;;;384.60;1152.00;;;;;;4793435;29;20026;-91
2021/10/24 14:25:19;;;;;;;26.00;16.13;;;384.60;1126.40;;;;;;4808893;29;20027;-90
2021/10/24 14:27:45;;;;;;;10.90;5.75;;;384.50;1177.60;;;;;;4808751;29;20034;-92
2021/10/24 14:30:12;;;;;;;27.00;12.82;;;384.40;1126.40;;;;;;4809297;29;20030;-92
2021/10/24 14:32:38;;;;;;;28.02;9.90;;;384.30;1177.60;;;;;;4797291;29;20033;-89
2021/10/24 14:35:05;;;;;;;26.95;11.63;;;384.20;1152.00;;;;;;4790700;29;20035;-91
2021/10/24 14:37:31;;;;;;;13.18;5.68;;;384.10;1152.00;;;;;;4790797;29;20038;-90
2021/10/24 14:39:57;;;;;;;11.10;6.63;;;384.10;1177.60;;;;;;4790825;29;20510;-89
2021/10/24 14:42:23;;;;;;;10.73;7.00;;;384.00;1177.60;;;;;;4790644;29;20062;-88
2021/10/24 14:44:50;;;;;;;10.25;5.47;;;359.30;1177.60;;;;;;4806770;29;20035;-90
2021/10/24 14:47:16;;;;;;;20.17;11.82;;;;;;;;;;4790828;29;20055;-89
2021/10/24 14:49:42;;;;;;;31.50;22.98;;;359.20;1228.80;;;;;;4805849;29;20049;-91
2021/10/24 14:52:09;;;;;;;43.40;33.53;;;359.00;1228.80;;;;;;4790823;29;20076;-90
2021/10/24 14:54:36;;;;;;;51.13;34.38;;;358.90;1228.80;;;;;;4806942;29;20023;-88
2021/10/24 14:57:02;;;;;;;78.03;47.35;;;358.90;1228.80;;;;;;4806620;29;20031;-92
2021/10/24 14:59:28;;;;;;;81.68;50.60;;;358.90;1254.40;;;;;;4790372;29;20050;-89
2021/10/24 15:01:54;;;;;;;58.58;40.30;;;358.80;1228.80;;;;;;4790674;29;20031;-90
2021/10/24 15:04:20;;;;;;;43.90;29.50;;;358.70;1254.40;;;;;;4791624;29;20056;-89
2021/10/24 15:06:46;;;;;;;45.20;31.65;;;358.60;1254.40;;;;;;4793963;29;20035;-89
2021/10/24 15:09:13;;;;;;;52.80;31.75;;;358.60;1280.00;;;;;;4793637;29;20026;-89
2021/10/24 15:11:43;;;;;;;72.95;43.50;;;358.50;1280.00;;;;;;4793669;29;20031;-90
2021/10/24 15:14:10;;;;;;;96.22;53.40;;;358.40;1280.00;;;;;;4793691;29;20031;-91
2021/10/24 15:19:28;;;;;;;67.20;41.60;;;333.70;1305.60;;;;;;4809730;29;20087;-90
2021/10/24 15:21:53;;;;;;;52.22;29.63;;;333.60;1305.60;;;;;;4809502;29;20023;-88
2021/10/24 15:24:20;;;;;;;50.72;29.77;;;333.50;1331.20;;;;;;4793646;29;20037;-89
2021/10/24 15:26:47;;;;;;;46.90;29.40;;;333.40;1356.80;;;;;;4793637;29;20077;-89
2021/10/24 15:29:13;;;;;;;48.22;27.85;;;333.10;1382.40;;;;;;4793659;29;20042;-88
2021/10/24 15:31:39;;;;;;;45.55;26.13;;;333.30;1356.80;;;;;;4793493;29;20115;-90
2021/10/24 15:34:07;;;;;;;51.42;28.15;;;333.10;1408.00;;;;;;4793590;29;20124;-89
2021/10/24 15:36:33;;;;;;;44.50;27.42;;;333.00;1433.60;;;;;;4792593;29;20030;-90
2021/10/24 15:39:00;;;;;;;40.15;24.23;;;332.90;1433.60;;;;;;4792369;29;20047;-88
2021/10/24 15:41:27;;;;;;;37.42;21.83;;;332.80;1510.40;;;;;;4792590;29;20018;-93
2021/10/24 15:43:54;;;;;;;36.95;21.05;;;308.10;1433.60;;;;;;4792970;29;20026;-89
2021/10/24 15:46:21;;;;;;;35.50;20.33;;;308.00;1433.60;;;;;;4793060;29;20027;-89
2021/10/24 15:48:47;;;;;;;43.85;21.33;;;307.90;1484.80;;;;;;4808004;29;20500;-90
2021/10/24 15:51:13;;;;;;;50.70;24.48;;;307.80;1484.80;;;;;;4793277;29;20035;-90
2021/10/24 15:53:41;;;;;;;60.10;23.52;;;307.70;1484.80;;;;;;4793046;29;20035;-90
2021/10/24 15:56:07;;;;;;;46.15;22.95;;;307.70;1561.60;;;;;;4792582;29;20099;-93
2021/10/24 15:58:34;;;;;;;66.07;36.42;;;307.20;1561.60;;;;;;4792407;29;20058;-90
2021/10/24 16:01:00;;;;;;;61.58;36.60;;;307.40;1587.20;;;;;;4792464;29;20061;-89
2021/10/24 16:03:27;;;;;;;60.38;31.58;;;307.30;1561.60;;;;;;4792415;29;20042;-89
2021/10/24 16:05:54;;;;;;;61.22;29.92;;;307.20;1612.80;;;;;;4792747;29;20081;-88
2021/10/24 16:08:20;;;;;;;62.53;29.85;;;307.20;1612.80;;;;;;4792723;29;20487;-89
2021/10/24 16:10:47;;;;;;;52.17;25.50;;;282.50;1587.20;;;;;;4793015;29;20111;-94
2021/10/24 16:13:13;;;;;;;59.42;27.05;;;282.40;1612.80;;;;;;4792972;29;20031;-90
2021/10/24 16:15:39;;;;;;;70.90;29.65;;;282.40;1638.40;;;;;;4791816;29;20027;-90
2021/10/24 16:18:06;;;;;;;54.70;27.33;;;282.30;1664.00;;;;;;4792505;29;20042;-90
2021/10/24 16:20:32;;;;;;;93.28;44.55;;;282.20;1664.00;;;;;;4792288;29;20047;-92
2021/10/24 16:22:59;;;;;;;92.47;43.90;;;282.30;1689.60;;;;;;4808378;29;20106;-92
2021/10/24 16:25:25;;;;;;;97.80;47.55;;;282.10;1689.60;;;;;;4810425;29;20035;-88
2021/10/24 16:27:52;;;;;;;89.10;41.05;;;282.00;1715.20;;;;;;4799759;29;20119;-94
2021/10/24 16:30:20;;;;;;;75.47;39.55;;;282.00;1766.40;;;;;;4800070;29;20027;-89
2021/10/24 16:32:48;;;;;;;72.15;33.65;;;281.90;1740.80;;;;;;4792024;29;20126;-90
2021/10/24 16:35:14;;;;;;;59.05;30.48;;;281.80;1792.00;;;;;;4798781;29;20045;-89
2021/10/24 16:37:40;;;;;;;54.03;27.45;;;281.80;1792.00;;;;;;4809771;29;20038;-89
2021/10/24 16:40:08;;;;;;;44.13;24.15;;;281.80;1792.00;;;;;;4806934;29;20057;-91
2021/10/24 16:42:35;;;;;;;63.97;30.70;;;281.80;1766.40;;;;;;4809877;29;20035;-90
2021/10/24 16:45:02;;;;;;;53.60;30.00;;;281.70;1766.40;;;;;;4809714;29;20040;-90
2021/10/24 16:47:28;;;;;;;51.20;29.77;;;281.60;1817.60;;;;;;4809698;29;20129;-89
2021/10/24 16:49:54;;;;;;;49.05;30.02;;;256.90;1766.40;;;;;;4809961;29;20153;-91
2021/10/24 16:52:20;;;;;;;59.28;32.78;;;256.70;1817.60;;;;;;4809590;29;20031;-93
2021/10/24 16:54:46;;;;;;;58.05;35.22;;;256.60;1843.20;;;;;;4809870;29;20385;-89
2021/10/24 16:57:11;;;;;;;76.68;38.60;;;256.60;1817.60;;;;;;4824926;29;20034;-91
2021/10/24 16:59:37;;;;;;;97.28;42.83;;;256.60;1817.60;;;;;;4824776;29;20042;-91
2021/10/24 17:02:04;;;;;;;78.10;41.00;;;256.60;1792.00;;;;;;4809613;29;20438;-91
2021/10/24 17:04:30;;;;;;;72.63;38.15;;;256.60;1766.40;;;;;;4809598;29;20038;-91
2021/10/24 17:06:55;;;;;;;60.70;35.38;;;256.60;1766.40;;;;;;4809824;29;20042;-92